Fortierville, Canada
Current Conditions -  °F | °C
As of 12:00 AM on Saturday 20 Dec 2014 (Local Time) from CYRQ Reporting Station
Clear Clear  
Wind Chill:   Ceiling: Unl
Heat Index:   Visibility: 9mi
Dew Point:   Wind: 0mph
Humidity: 92%   Direction: NA
Pressure: 30.22"   Gusts: NA
Location:  46.48°N, 72.03°W
Report Text: CYRQ 200500Z AUTO 00000KT 9SM CLR M17/M18 A3022 RMK SLP239
Loading
Personal Weather Stations






























Interactive Weather Map New forecast layout! Learn more

10-Day Weather Forecast

Advertisements
Track Severe Weather on mobile